Time;durP1;ratioP1;P1;durP2;ratioP2;P2;SDS_P1;SDS_P2;PMS_P1;PMS_P2;Temp;Humidity;BMP_temperature;BMP_pressure;BME280_temperature;BME280_humidity;BME280_pressure;Samples;Min_cycle;Max_cycle;Signal;HPM_P1;HPM_P2
2022/11/02 00:01:22;;;;;;;33.08;21.10;;;11.90;99.90;;;;;;6167136;23;20162;-87
2022/11/02 00:03:50;;;;;;;33.13;21.80;;;11.70;99.90;;;;;;6170052;23;20180;-85
2022/11/02 00:06:17;;;;;;;33.65;21.80;;;11.70;99.90;;;;;;6195536;23;20192;-86
2022/11/02 00:08:46;;;;;;;30.20;21.42;;;11.70;99.90;;;;;;6198668;23;20205;-88
2022/11/02 00:11:15;;;;;;;32.85;21.15;;;11.70;99.90;;;;;;6208613;23;20165;-85
2022/11/02 00:13:45;;;;;;;29.83;21.08;;;11.70;99.90;;;;;;6209539;23;20263;-85
2022/11/02 00:16:14;;;;;;;33.05;22.73;;;11.60;99.90;;;;;;6172007;23;20189;-85
2022/11/02 00:18:44;;;;;;;33.65;20.98;;;11.60;99.90;;;;;;6196876;23;20224;-86
2022/11/02 00:21:14;;;;;;;36.53;21.08;;;11.60;99.90;;;;;;6196343;23;20208;-86
2022/11/02 00:23:41;;;;;;;34.45;21.52;;;11.60;99.90;;;;;;6196780;23;20177;-85
2022/11/02 00:26:14;;;;;;;30.17;20.50;;;11.50;99.90;;;;;;6197319;23;20158;-85
2022/11/02 00:32:49;;;;;;;29.58;19.88;;;11.40;99.90;;;;;;6197333;23;20136;-86
2022/11/02 00:35:22;;;;;;;30.60;20.48;;;11.30;99.90;;;;;;6197141;23;20189;-84
2022/11/02 00:37:51;;;;;;;33.05;22.20;;;11.30;99.90;;;;;;6197129;23;20177;-85
2022/11/02 00:40:19;;;;;;;31.70;22.63;;;11.20;99.90;;;;;;6196287;23;20177;-85
2022/11/02 00:42:47;;;;;;;34.78;21.90;;;11.10;99.90;;;;;;6196520;23;20266;-85
2022/11/02 00:45:15;;;;;;;27.45;20.33;;;11.20;99.90;;;;;;6170692;23;20182;-85
2022/11/02 00:47:43;;;;;;;32.88;21.77;;;11.10;99.90;;;;;;6197567;23;20208;-86
2022/11/02 00:54:09;;;;;;;31.92;22.23;;;11.20;99.90;;;;;;6197185;23;20455;-85
2022/11/02 00:56:48;;;;;;;32.88;21.85;;;11.10;99.90;;;;;;6197042;23;20496;-87
2022/11/02 00:59:17;;;;;;;27.08;20.80;;;11.10;99.90;;;;;;6171210;23;20262;-87
2022/11/02 01:01:46;;;;;;;30.38;18.20;;;11.00;99.90;;;;;;6198171;23;20188;-90
2022/11/02 01:04:16;;;;;;;24.55;18.33;;;11.10;99.90;;;;;;6195499;23;20208;-87
2022/11/02 01:06:44;;;;;;;27.98;19.05;;;11.20;99.90;;;;;;6168476;23;20185;-89
2022/11/02 01:09:14;;;;;;;29.83;20.35;;;11.10;99.90;;;;;;6194504;23;20213;-87
2022/11/02 01:11:42;;;;;;;33.10;20.08;;;11.10;99.90;;;;;;6198896;23;20200;-90
2022/11/02 01:14:10;;;;;;;26.92;20.08;;;11.20;99.90;;;;;;6208474;23;20237;-92
2022/11/02 01:16:39;;;;;;;32.67;21.05;;;11.10;99.90;;;;;;6161236;23;20201;-88
2022/11/02 01:19:07;;;;;;;26.27;19.50;;;11.10;99.90;;;;;;6212721;23;20169;-88
2022/11/02 01:21:35;;;;;;;27.13;20.70;;;11.10;99.90;;;;;;6209849;23;20168;-90
2022/11/02 01:24:02;;;;;;;27.25;19.85;;;11.20;99.90;;;;;;6212570;23;20172;-89
2022/11/02 01:26:29;;;;;;;31.65;20.48;;;11.10;99.90;;;;;;6204479;23;20180;-87
2022/11/02 01:28:56;;;;;;;33.75;19.80;;;11.10;99.90;;;;;;6199147;23;20200;-89
2022/11/02 01:31:23;;;;;;;26.10;19.42;;;11.00;99.90;;;;;;6171136;23;20500;-88
2022/11/02 01:33:51;;;;;;;27.00;18.65;;;10.90;99.90;;;;;;6195318;23;20161;-90
2022/11/02 01:36:20;;;;;;;29.30;19.67;;;10.90;99.90;;;;;;6209416;23;20185;-94
2022/11/02 01:38:54;;;;;;;24.05;19.50;;;10.80;99.90;;;;;;6210934;23;20160;-89
2022/11/02 01:41:24;;;;;;;32.28;20.20;;;10.80;99.90;;;;;;6182977;23;20224;-86
2022/11/02 01:43:55;;;;;;;32.08;19.05;;;10.80;99.90;;;;;;6195119;23;20416;-87
2022/11/02 01:49:27;;;;;;;25.35;18.00;;;11.00;99.90;;;;;;6194584;23;20160;-87
2022/11/02 01:52:14;;;;;;;25.17;19.05;;;11.00;99.90;;;;;;6194917;23;20216;-87
2022/11/02 01:54:49;;;;;;;24.30;16.50;;;11.00;99.90;;;;;;6195709;23;20192;-85
2022/11/02 02:00:34;;;;;;;25.60;18.52;;;11.10;99.90;;;;;;6077160;23;20160;-88
2022/11/02 02:03:10;;;;;;;28.27;15.40;;;11.10;99.90;;;;;;6075863;23;20179;-86
2022/11/02 02:06:07;;;;;;;25.67;18.45;;;11.00;99.90;;;;;;6075361;23;20280;-88
2022/11/02 02:08:38;;;;;;;24.33;18.08;;;11.00;99.90;;;;;;6062588;23;20187;-87
2022/11/02 02:11:27;;;;;;;35.42;19.85;;;10.90;99.90;;;;;;6074106;23;20164;-88
2022/11/02 02:13:59;;;;;;;21.00;16.13;;;10.80;99.90;;;;;;6072426;23;20419;-86
2022/11/02 02:17:02;;;;;;;23.75;16.23;;;10.80;99.90;;;;;;6158387;23;20209;-88
2022/11/02 02:19:48;;;;;;;22.27;16.45;;;10.70;99.90;;;;;;6185622;23;20231;-86
2022/11/02 02:22:22;;;;;;;30.70;16.23;;;10.60;99.90;;;;;;6195246;23;20242;-87
2022/11/02 02:25:25;;;;;;;28.98;19.25;;;10.60;99.90;;;;;;6194355;23;20173;-88
2022/11/02 02:28:19;;;;;;;24.73;18.10;;;10.70;99.90;;;;;;6186853;23;20187;-90
2022/11/02 02:31:31;;;;;;;27.08;17.77;;;10.80;99.90;;;;;;6197984;23;20161;-87
2022/11/02 02:34:14;;;;;;;26.48;16.75;;;10.80;99.90;;;;;;6196874;23;20460;-87
2022/11/02 02:36:55;;;;;;;24.98;17.70;;;10.80;99.90;;;;;;6211359;23;20193;-86
2022/11/02 02:39:27;;;;;;;23.20;17.27;;;10.90;99.90;;;;;;6212332;23;20165;-86
2022/11/02 02:42:10;;;;;;;22.90;17.75;;;10.90;99.90;;;;;;6212411;23;20161;-89
2022/11/02 02:44:42;;;;;;;21.50;16.10;;;10.90;99.90;;;;;;6210899;23;20195;-89
2022/11/02 02:47:20;;;;;;;22.05;15.77;;;10.80;99.90;;;;;;6187252;23;20215;-91
2022/11/02 02:49:55;;;;;;;22.30;16.67;;;10.60;99.90;;;;;;6186504;23;20157;-87
2022/11/02 02:52:25;;;;;;;26.52;17.88;;;10.50;99.90;;;;;;6202219;23;20195;-87
2022/11/02 02:54:57;;;;;;;22.40;15.15;;;10.70;99.90;;;;;;6200931;23;20176;-89
2022/11/02 02:57:30;;;;;;;20.23;15.82;;;10.70;99.90;;;;;;6169480;23;20231;-90
2022/11/02 02:59:57;;;;;;;25.92;17.88;;;10.80;99.90;;;;;;6192550;23;20481;-90
2022/11/02 03:02:32;;;;;;;21.73;16.48;;;10.80;99.90;;;;;;6192031;23;20235;-90
2022/11/02 03:04:59;;;;;;;20.50;16.73;;;10.70;99.90;;;;;;6194493;23;20160;-89
2022/11/02 03:07:29;;;;;;;23.15;18.17;;;10.60;99.90;;;;;;6194198;23;20181;-89
2022/11/02 03:10:20;;;;;;;24.42;17.02;;;10.50;99.90;;;;;;6169174;23;20176;-88
2022/11/02 03:13:10;;;;;;;22.77;17.63;;;10.60;99.90;;;;;;6167024;23;20382;-88
2022/11/02 03:16:02;;;;;;;26.63;18.70;;;10.70;99.90;;;;;;6193557;23;20169;-89
2022/11/02 03:19:07;;;;;;;25.90;18.40;;;10.70;99.90;;;;;;6195488;23;20181;-88
2022/11/02 03:21:40;;;;;;;23.88;18.50;;;10.80;99.90;;;;;;6144570;23;20192;-89
2022/11/02 03:24:15;;;;;;;25.10;17.65;;;10.70;99.90;;;;;;6193245;23;20200;-87
2022/11/02 03:26:59;;;;;;;25.25;17.38;;;10.70;99.90;;;;;;6194014;23;20452;-86
2022/11/02 03:29:48;;;;;;;24.00;17.52;;;10.80;99.90;;;;;;6195301;23;20531;-88
2022/11/02 03:32:25;;;;;;;31.77;19.58;;;10.70;99.90;;;;;;6194945;23;20425;-87
2022/11/02 03:34:59;;;;;;;30.05;17.55;;;10.70;99.90;;;;;;6193656;23;20231;-89
2022/11/02 03:37:33;;;;;;;25.92;18.50;;;10.70;99.90;;;;;;6193072;23;20424;-88
2022/11/02 03:43:44;;;;;;;25.38;19.70;;;10.60;99.90;;;;;;6205567;23;20188;-86
2022/11/02 03:46:14;;;;;;;27.13;20.02;;;10.60;99.90;;;;;;6163225;23;20208;-87
2022/11/02 03:48:47;;;;;;;27.92;19.25;;;10.50;99.90;;;;;;6198741;23;20173;-88
2022/11/02 03:51:18;;;;;;;26.27;19.58;;;10.50;99.90;;;;;;6170626;23;20185;-89
2022/11/02 03:57:38;;;;;;;29.60;18.42;;;10.40;99.90;;;;;;6198346;23;20179;-88
2022/11/02 04:00:13;;;;;;;31.50;20.00;;;10.30;99.90;;;;;;6197340;23;20211;-87
2022/11/02 04:02:44;;;;;;;31.40;19.40;;;10.30;99.90;;;;;;6196253;23;20470;-89
2022/11/02 04:05:13;;;;;;;29.08;19.73;;;10.30;99.90;;;;;;6197326;23;20366;-88
2022/11/02 04:08:37;;;;;;;29.45;21.90;;;10.30;99.90;;;;;;6170132;23;20204;-85
2022/11/02 04:14:36;;;;;;;24.50;19.17;;;10.20;99.90;;;;;;6180461;23;20271;-86
2022/11/02 04:16:17;;;;;;;31.25;20.67;;;10.30;99.90;;;;;;6194746;23;20682;-88
2022/11/02 04:25:14;;;;;;;35.22;22.60;;;10.20;99.90;;;;;;6195618;23;20511;-90
2022/11/02 04:27:14;;;;;;;32.97;19.85;;;10.10;99.90;;;;;;6196114;23;20492;-86
2022/11/02 04:29:47;;;;;;;28.77;20.00;;;9.90;99.90;;;;;;6196157;23;20397;-89
2022/11/02 04:33:31;;;;;;;31.13;18.80;;;10.00;99.90;;;;;;6195522;23;20204;-88
2022/11/02 04:35:05;;;;;;;27.25;17.23;;;10.10;99.90;;;;;;6193856;23;20263;-88
2022/11/02 04:40:29;;;;;;;34.60;22.05;;;10.20;99.90;;;;;;6192301;23;20184;-87
2022/11/02 04:42:57;;;;;;;32.85;20.85;;;10.20;99.90;;;;;;6192814;23;20188;-87
2022/11/02 04:45:25;;;;;;;25.00;17.55;;;10.10;99.90;;;;;;6192462;23;20949;-87
2022/11/02 04:47:57;;;;;;;26.30;19.10;;;10.10;99.90;;;;;;6168241;23;20243;-91
2022/11/02 04:50:25;;;;;;;32.30;18.70;;;10.10;99.90;;;;;;6193071;23;20223;-89
2022/11/02 04:52:56;;;;;;;27.33;19.40;;;10.10;99.90;;;;;;6168454;23;20213;-89
2022/11/02 04:55:29;;;;;;;29.52;16.65;;;10.10;99.90;;;;;;6193627;23;20228;-88
2022/11/02 04:57:56;;;;;;;25.50;17.52;;;10.10;99.90;;;;;;6194351;23;20232;-88
2022/11/02 05:00:24;;;;;;;22.17;17.15;;;10.10;99.90;;;;;;6168675;23;20243;-89
2022/11/02 05:02:51;;;;;;;26.02;18.13;;;10.10;99.90;;;;;;6193537;23;20231;-89
2022/11/02 05:05:23;;;;;;;26.60;17.55;;;10.10;99.90;;;;;;6170090;23;20357;-92
2022/11/02 05:07:50;;;;;;;26.67;17.63;;;10.10;99.90;;;;;;6201184;23;20181;-91
2022/11/02 05:10:18;;;;;;;29.35;19.40;;;10.10;99.90;;;;;;6180437;23;20168;-91
2022/11/02 05:12:46;;;;;;;27.25;18.00;;;10.10;99.90;;;;;;6186135;23;20199;-89
2022/11/02 05:15:15;;;;;;;20.90;16.50;;;10.10;99.90;;;;;;6187422;23;20229;-89
2022/11/02 05:17:47;;;;;;;23.83;16.40;;;10.10;99.90;;;;;;6197458;23;20201;-89
2022/11/02 05:20:17;;;;;;;23.70;15.45;;;10.00;99.90;;;;;;6193844;23;20199;-86
2022/11/02 05:22:45;;;;;;;24.40;16.08;;;10.10;99.90;;;;;;6192635;23;20669;-89
2022/11/02 05:25:12;;;;;;;26.52;18.52;;;10.20;99.90;;;;;;6142528;23;20188;-88
2022/11/02 05:27:39;;;;;;;25.20;17.65;;;10.00;99.90;;;;;;6169191;23;20185;-90
2022/11/02 05:30:08;;;;;;;29.67;18.38;;;10.00;99.90;;;;;;6192583;23;20200;-90
2022/11/02 05:32:38;;;;;;;32.05;21.38;;;10.00;99.90;;;;;;6144304;23;20384;-89
2022/11/02 05:35:05;;;;;;;27.17;19.42;;;10.10;99.90;;;;;;6165173;23;20243;-89
2022/11/02 05:37:33;;;;;;;30.85;19.00;;;10.10;99.90;;;;;;6166097;23;20732;-88
2022/11/02 05:40:01;;;;;;;27.05;17.17;;;10.10;99.90;;;;;;6191944;23;20222;-88
2022/11/02 05:42:28;;;;;;;25.33;16.70;;;10.10;99.90;;;;;;6165983;23;20189;-88
2022/11/02 05:44:56;;;;;;;28.80;16.63;;;10.20;99.90;;;;;;6193023;23;20490;-88
2022/11/02 05:47:25;;;;;;;25.42;17.92;;;10.10;99.90;;;;;;6166995;23;20189;-88
2022/11/02 05:49:57;;;;;;;27.00;18.65;;;10.10;99.90;;;;;;6175018;23;20191;-88
2022/11/02 05:52:25;;;;;;;21.95;19.55;;;10.10;99.90;;;;;;6203333;23;20176;-89
2022/11/02 05:54:52;;;;;;;24.58;18.52;;;10.10;99.90;;;;;;6198599;23;20184;-88
2022/11/02 05:57:22;;;;;;;26.60;19.30;;;10.10;99.90;;;;;;6199594;23;20244;-87
2022/11/02 05:59:52;;;;;;;28.48;19.30;;;10.10;99.90;;;;;;6199973;23;20202;-86
2022/11/02 06:02:21;;;;;;;33.88;19.73;;;10.00;99.90;;;;;;6202430;23;20212;-86
2022/11/02 06:04:51;;;;;;;26.60;19.88;;;10.00;99.90;;;;;;6179530;23;20637;-89
2022/11/02 06:07:18;;;;;;;33.80;21.45;;;10.00;99.90;;;;;;6173142;23;20181;-87
2022/11/02 06:09:48;;;;;;;32.42;20.83;;;10.00;99.90;;;;;;6195294;23;20165;-88
2022/11/02 06:12:17;;;;;;;31.63;21.77;;;10.00;99.90;;;;;;6194144;23;20401;-88
2022/11/02 06:14:46;;;;;;;33.42;21.38;;;10.00;99.90;;;;;;6167346;23;20189;-89
2022/11/02 06:17:13;;;;;;;35.50;21.63;;;10.00;99.90;;;;;;6166486;23;20588;-89
2022/11/02 06:19:41;;;;;;;31.98;22.67;;;10.00;99.90;;;;;;6192378;23;20197;-87
2022/11/02 06:22:09;;;;;;;34.33;21.58;;;10.10;99.90;;;;;;6168362;23;20177;-90
2022/11/02 06:24:36;;;;;;;38.30;23.08;;;10.20;99.90;;;;;;6194031;23;20213;-88
2022/11/02 06:27:05;;;;;;;31.45;21.10;;;10.10;99.90;;;;;;6193267;23;20177;-89
2022/11/02 06:29:34;;;;;;;28.55;20.05;;;10.30;99.90;;;;;;6193832;23;20228;-88
2022/11/02 06:32:03;;;;;;;33.10;21.70;;;10.40;99.90;;;;;;6168106;23;20248;-88
2022/11/02 06:34:33;;;;;;;39.00;21.58;;;10.50;99.90;;;;;;6194483;23;20172;-85
2022/11/02 06:37:02;;;;;;;32.60;20.70;;;10.50;99.90;;;;;;6193253;23;20260;-90
2022/11/02 06:39:30;;;;;;;30.92;19.90;;;10.60;99.90;;;;;;6168936;23;20278;-88
2022/11/02 06:42:01;;;;;;;32.33;19.05;;;10.50;99.90;;;;;;6195804;23;20240;-87
2022/11/02 06:44:36;;;;;;;28.00;19.27;;;10.60;99.90;;;;;;6198241;23;20177;-87
2022/11/02 06:47:11;;;;;;;31.90;19.95;;;10.80;99.90;;;;;;6170546;23;20165;-87
2022/11/02 06:49:40;;;;;;;32.70;18.25;;;10.90;99.90;;;;;;6195491;23;20165;-89
2022/11/02 06:52:09;;;;;;;27.17;18.50;;;10.90;99.90;;;;;;6168477;23;20188;-87
2022/11/02 06:54:38;;;;;;;32.83;20.25;;;10.80;99.90;;;;;;6191905;23;20185;-87
2022/11/02 06:57:05;;;;;;;24.85;16.08;;;10.80;99.90;;;;;;6143646;23;20251;-88
2022/11/02 06:59:32;;;;;;;22.95;16.00;;;11.00;99.90;;;;;;6192983;23;20201;-88
2022/11/02 07:02:03;;;;;;;25.50;16.50;;;11.30;99.90;;;;;;6190011;23;20236;-88
2022/11/02 07:04:32;;;;;;;25.25;14.15;;;11.60;99.90;;;;;;6190798;23;20189;-88
2022/11/02 07:07:01;;;;;;;18.25;13.38;;;11.70;99.90;;;;;;6169353;23;20469;-87
2022/11/02 07:09:32;;;;;;;21.13;13.55;;;11.90;99.90;;;;;;6195408;23;20220;-88
2022/11/02 07:12:00;;;;;;;13.57;11.23;;;12.10;99.90;;;;;;6194955;23;20234;-86
2022/11/02 07:14:29;;;;;;;19.27;14.73;;;12.20;99.90;;;;;;6201448;23;20228;-92
2022/11/02 07:16:56;;;;;;;22.65;13.52;;;12.50;99.90;;;;;;6182040;23;20218;-91
2022/11/02 07:19:27;;;;;;;16.35;10.93;;;12.50;99.90;;;;;;6181332;23;20184;-90
2022/11/02 07:21:57;;;;;;;16.00;10.02;;;12.70;99.90;;;;;;6181467;23;20226;-88
2022/11/02 07:24:28;;;;;;;21.80;12.32;;;13.90;99.90;;;;;;6205236;23;20283;-87
2022/11/02 07:26:57;;;;;;;16.85;9.73;;;14.10;99.90;;;;;;6205959;23;20189;-87
2022/11/02 07:29:25;;;;;;;14.18;9.52;;;15.10;99.90;;;;;;6205648;23;20215;-91
2022/11/02 07:31:55;;;;;;;13.45;9.68;;;16.20;99.90;;;;;;6207066;23;20153;-91
2022/11/02 07:34:25;;;;;;;10.87;9.70;;;17.00;99.90;;;;;;6201786;23;20196;-91
2022/11/02 07:36:54;;;;;;;22.40;10.17;;;17.40;99.90;;;;;;6170548;23;20398;-89
2022/11/02 07:39:23;;;;;;;11.13;8.97;;;17.70;99.90;;;;;;6192646;23;20640;-89
2022/11/02 07:41:51;;;;;;;11.33;8.67;;;18.00;99.90;;;;;;6171330;23;20401;-90
2022/11/02 07:44:20;;;;;;;10.47;8.27;;;18.50;99.90;;;;;;6173710;23;20449;-89
2022/11/02 07:46:47;;;;;;;10.13;9.03;;;18.90;99.90;;;;;;6164852;23;20632;-87
2022/11/02 07:49:18;;;;;;;13.03;9.60;;;19.10;99.90;;;;;;6165674;23;20393;-88
2022/11/02 07:51:48;;;;;;;12.07;9.50;;;19.20;99.90;;;;;;6144664;23;20406;-88
2022/11/02 07:54:15;;;;;;;13.97;9.63;;;18.70;99.90;;;;;;6195263;23;20397;-87
2022/11/02 07:56:44;;;;;;;12.83;10.23;;;17.70;99.90;;;;;;6189378;23;20549;-89
2022/11/02 07:59:12;;;;;;;12.80;9.10;;;16.90;99.90;;;;;;6188447;23;20399;-89
2022/11/02 08:01:40;;;;;;;12.40;8.73;;;16.40;99.90;;;;;;6160931;23;20438;-88
2022/11/02 08:04:06;;;;;;;14.73;8.80;;;15.90;99.90;;;;;;6188901;23;20399;-87
2022/11/02 08:06:34;;;;;;;16.83;9.97;;;16.00;99.90;;;;;;6163096;23;20442;-87
2022/11/02 08:09:02;;;;;;;11.97;9.00;;;16.80;99.90;;;;;;6189436;23;20399;-88
2022/11/02 08:11:30;;;;;;;13.43;8.27;;;17.60;99.90;;;;;;6189025;23;20600;-86
2022/11/02 08:14:11;;;;;;;12.63;9.90;;;18.70;99.90;;;;;;6189098;23;20710;-86
2022/11/02 08:16:41;;;;;;;10.40;8.83;;;19.80;99.90;;;;;;6189608;23;20454;-88
2022/11/02 08:19:10;;;;;;;14.40;9.60;;;20.80;99.90;;;;;;6161465;23;20612;-86
2022/11/02 08:21:38;;;;;;;10.50;8.83;;;21.30;99.90;;;;;;6190556;23;20429;-84
2022/11/02 08:24:11;;;;;;;11.50;9.70;;;22.50;99.90;;;;;;6191143;23;20457;-87
2022/11/02 08:26:44;;;;;;;11.13;8.00;;;22.80;99.90;;;;;;6193160;23;20777;-86
2022/11/02 08:29:14;;;;;;;11.67;8.00;;;22.90;99.90;;;;;;6195158;23;20605;-86
2022/11/02 08:31:47;;;;;;;10.90;7.20;;;22.30;99.90;;;;;;6199629;23;20377;-85
2022/11/02 08:34:13;;;;;;;12.97;9.70;;;22.80;99.90;;;;;;6200615;23;20346;-86
2022/11/02 08:36:44;;;;;;;9.37;7.40;;;23.30;99.90;;;;;;6203287;23;20448;-85
2022/11/02 08:39:11;;;;;;;16.50;8.00;;;22.50;99.90;;;;;;6174009;23;20905;-86
2022/11/02 08:41:44;;;;;;;11.03;8.30;;;22.20;99.90;;;;;;6189985;23;20358;-86
2022/11/02 08:44:13;;;;;;;8.57;6.63;;;22.40;99.90;;;;;;6164883;23;20402;-85
2022/11/02 08:46:41;;;;;;;8.00;6.20;;;22.10;99.90;;;;;;6141138;23;20412;-86
2022/11/02 08:49:10;;;;;;;9.07;6.90;;;21.40;99.90;;;;;;6197676;23;20436;-87
2022/11/02 08:51:37;;;;;;;8.17;6.87;;;20.90;99.90;;;;;;6206162;23;20431;-86
2022/11/02 08:54:05;;;;;;;8.73;6.53;;;20.80;99.90;;;;;;6205544;23;20364;-85
2022/11/02 08:56:32;;;;;;;10.33;6.30;;;20.00;99.90;;;;;;6164603;23;20368;-85
2022/11/02 08:59:06;;;;;;;12.00;7.60;;;19.10;99.90;;;;;;6188079;23;20438;-86
2022/11/02 09:01:41;;;;;;;19.20;5.97;;;18.00;99.90;;;;;;6190047;23;20349;-85
2022/11/02 09:04:30;;;;;;;7.80;4.93;;;17.20;99.90;;;;;;6166454;23;20407;-83
2022/11/02 09:06:57;;;;;;;7.33;4.30;;;16.60;99.90;;;;;;6162840;23;20389;-83
2022/11/02 09:09:24;;;;;;;8.33;4.30;;;16.30;99.90;;;;;;6188942;23;20489;-83
2022/11/02 09:11:52;;;;;;;4.83;4.00;;;16.00;99.90;;;;;;6188653;23;20609;-85
2022/11/02 09:14:20;;;;;;;6.37;4.03;;;15.70;99.90;;;;;;6188438;23;20632;-84
2022/11/02 09:16:47;;;;;;;5.90;4.00;;;15.70;99.90;;;;;;6189426;23;20629;-84
2022/11/02 09:19:20;;;;;;;9.03;5.63;;;15.80;99.90;;;;;;6188221;23;20423;-83
2022/11/02 09:21:50;;;;;;;5.00;3.83;;;15.70;99.90;;;;;;6163085;23;20385;-84
2022/11/02 09:24:17;;;;;;;6.07;5.20;;;15.60;99.90;;;;;;6189724;23;20426;-84
2022/11/02 09:26:47;;;;;;;7.07;3.83;;;15.60;99.90;;;;;;6162548;23;20457;-84
2022/11/02 09:29:14;;;;;;;6.23;4.77;;;15.60;99.90;;;;;;6189498;23;20403;-84
2022/11/02 09:31:44;;;;;;;10.17;3.97;;;15.50;99.90;;;;;;6189678;23;20369;-84
2022/11/02 09:34:15;;;;;;;7.33;4.83;;;15.60;99.90;;;;;;6164387;23;20381;-85
2022/11/02 09:36:42;;;;;;;5.70;4.40;;;15.60;99.90;;;;;;6188931;23;20772;-84
2022/11/02 09:39:12;;;;;;;4.23;3.53;;;15.50;99.90;;;;;;6163547;23;20423;-83
2022/11/02 09:41:55;;;;;;;3.80;3.47;;;15.60;99.90;;;;;;6189934;23;20391;-84
2022/11/02 09:44:35;;;;;;;9.07;3.73;;;15.50;99.90;;;;;;6189597;23;20389;-86
2022/11/02 09:47:03;;;;;;;6.90;4.13;;;15.60;99.90;;;;;;6188739;23;20387;-85
2022/11/02 09:49:52;;;;;;;14.20;6.90;;;15.70;99.90;;;;;;6166903;23;20410;-85
2022/11/02 09:52:30;;;;;;;9.30;2.93;;;15.70;99.90;;;;;;6188445;23;20421;-84
2022/11/02 09:55:03;;;;;;;5.20;3.87;;;15.70;99.90;;;;;;6190760;23;20667;-86
2022/11/02 09:57:33;;;;;;;8.53;2.87;;;15.60;99.90;;;;;;6142149;23;20358;-87
2022/11/02 10:00:01;;;;;;;3.60;2.40;;;15.50;99.90;;;;;;6165468;23;20714;-84
2022/11/02 10:03:07;;;;;;;4.60;2.80;;;15.50;99.90;;;;;;6164901;23;20392;-85
2022/11/02 10:06:00;;;;;;;4.70;2.97;;;15.60;99.90;;;;;;6190602;23;20371;-85
2022/11/02 10:08:58;;;;;;;3.67;3.37;;;15.70;99.90;;;;;;6164212;23;20447;-85
2022/11/02 10:12:06;;;;;;;9.27;2.80;;;15.60;99.90;;;;;;6190925;23;20430;-85
2022/11/02 10:14:40;;;;;;;2.77;1.87;;;15.50;99.90;;;;;;6190635;23;20401;-84
2022/11/02 10:17:16;;;;;;;3.43;2.57;;;15.50;99.90;;;;;;6189740;23;20375;-84
2022/11/02 10:19:50;;;;;;;4.53;2.40;;;15.50;99.90;;;;;;6162701;23;20494;-84
2022/11/02 10:22:21;;;;;;;4.43;2.13;;;15.60;99.90;;;;;;6189206;23;20528;-84
2022/11/02 10:24:52;;;;;;;8.43;2.50;;;15.50;99.90;;;;;;6183900;23;20442;-84
2022/11/02 10:27:22;;;;;;;4.17;2.40;;;15.50;99.90;;;;;;6163262;23;20405;-84
2022/11/02 10:30:03;;;;;;;2.70;2.07;;;15.40;99.90;;;;;;6162537;23;20450;-85
2022/11/02 10:32:36;;;;;;;3.70;2.37;;;15.50;99.90;;;;;;6191799;23;20494;-86
2022/11/02 10:35:22;;;;;;;4.63;2.70;;;15.40;99.90;;;;;;6195959;23;20414;-86
2022/11/02 10:38:51;;;;;;;4.03;2.03;;;15.40;99.90;;;;;;6192399;23;20442;-85
2022/11/02 10:41:52;;;;;;;5.25;2.28;;;15.50;99.90;;;;;;6192673;23;20447;-86
2022/11/02 10:44:55;;;;;;;3.53;2.37;;;15.60;99.90;;;;;;6166590;23;20215;-82
2022/11/02 10:47:33;;;;;;;11.57;3.15;;;15.50;99.90;;;;;;6157175;23;20413;-84
2022/11/02 10:50:40;;;;;;;3.10;2.37;;;15.50;99.90;;;;;;6193677;23;20195;-85
2022/11/02 10:53:15;;;;;;;4.23;2.40;;;15.50;99.90;;;;;;6056749;23;20453;-84
2022/11/02 10:56:11;;;;;;;9.77;3.53;;;15.50;99.90;;;;;;6173890;23;20404;-87
2022/11/02 10:58:45;;;;;;;2.80;2.38;;;15.40;99.90;;;;;;6192760;23;20200;-86
2022/11/02 11:01:18;;;;;;;3.85;2.00;;;15.40;99.90;;;;;;6191403;23;20200;-87
2022/11/02 11:03:55;;;;;;;2.93;2.43;;;15.40;99.90;;;;;;6191239;23;20207;-89
2022/11/02 11:06:26;;;;;;;6.93;2.30;;;15.50;99.90;;;;;;6192190;23;20614;-86
2022/11/02 11:09:18;;;;;;;5.63;3.17;;;15.60;99.90;;;;;;6190515;23;20193;-86
2022/11/02 11:12:05;;;;;;;7.30;3.40;;;15.60;99.90;;;;;;6168709;23;20433;-83
2022/11/02 11:14:57;;;;;;;6.10;2.73;;;15.70;99.90;;;;;;6142263;23;20379;-86
2022/11/02 11:17:45;;;;;;;3.00;2.47;;;15.60;99.90;;;;;;6190446;23;20378;-86
2022/11/02 11:20:37;;;;;;;6.87;2.80;;;15.50;99.90;;;;;;6168123;23;20412;-86
2022/11/02 11:23:24;;;;;;;3.37;2.17;;;15.70;99.90;;;;;;6190105;23;20378;-86
2022/11/02 11:25:56;;;;;;;4.13;2.50;;;15.90;99.90;;;;;;6165659;23;20398;-84
2022/11/02 11:28:32;;;;;;;4.67;2.77;;;15.90;99.90;;;;;;6191418;23;20361;-86
2022/11/02 11:31:13;;;;;;;4.60;2.77;;;15.80;99.90;;;;;;6191080;23;20383;-84
2022/11/02 11:33:47;;;;;;;6.67;2.87;;;15.80;99.90;;;;;;6192038;23;20447;-87
2022/11/02 11:36:32;;;;;;;9.43;2.67;;;15.80;99.90;;;;;;6190749;23;20410;-86
2022/11/02 11:39:18;;;;;;;2.20;2.10;;;15.80;99.90;;;;;;6190613;23;20596;-85
2022/11/02 11:41:45;;;;;;;3.67;2.30;;;15.80;99.90;;;;;;6164762;23;20679;-85
2022/11/02 11:44:14;;;;;;;3.33;2.43;;;15.90;99.90;;;;;;6189557;23;20647;-86
2022/11/02 11:46:46;;;;;;;3.93;1.87;;;15.90;99.90;;;;;;6190304;23;20418;-86
2022/11/02 11:49:24;;;;;;;5.90;2.67;;;16.00;99.90;;;;;;6190397;23;20366;-88
2022/11/02 11:52:27;;;;;;;8.13;2.90;;;16.10;99.90;;;;;;6190975;23;20682;-85
2022/11/02 11:54:59;;;;;;;5.23;3.40;;;16.00;99.90;;;;;;6165781;23;20409;-86
2022/11/02 11:57:34;;;;;;;9.47;3.30;;;16.00;99.90;;;;;;6193232;23;20433;-86
2022/11/02 12:00:26;;;;;;;4.03;3.10;;;15.90;99.90;;;;;;6197015;23;20422;-85
2022/11/02 12:03:05;;;;;;;9.70;2.77;;;15.90;99.90;;;;;;6194523;23;20395;-84
2022/11/02 12:05:57;;;;;;;3.50;3.20;;;16.00;99.90;;;;;;6193344;23;20387;-85
2022/11/02 12:08:46;;;;;;;3.77;2.43;;;16.10;99.90;;;;;;6193447;23;20358;-85
2022/11/02 12:11:43;;;;;;;3.73;2.50;;;16.10;99.90;;;;;;6195575;23;20677;-85
2022/11/02 12:14:37;;;;;;;2.97;2.40;;;16.30;99.90;;;;;;6203868;23;20377;-85
2022/11/02 12:17:24;;;;;;;3.30;2.27;;;16.20;99.90;;;;;;6212522;23;20411;-86
2022/11/02 12:20:06;;;;;;;4.53;2.50;;;16.30;99.90;;;;;;6210726;23;20452;-87
2022/11/02 12:22:45;;;;;;;5.67;2.43;;;16.40;99.90;;;;;;6208985;23;20393;-87
2022/11/02 12:25:29;;;;;;;5.33;2.67;;;16.30;99.90;;;;;;6195343;23;20408;-86
2022/11/02 12:28:19;;;;;;;3.30;2.53;;;16.20;99.90;;;;;;6197082;23;20449;-85
2022/11/02 12:31:28;;;;;;;5.93;2.70;;;16.40;99.90;;;;;;6209680;23;20386;-86
2022/11/02 12:34:17;;;;;;;6.40;4.17;;;16.30;99.90;;;;;;6199182;23;20413;-85
2022/11/02 12:37:16;;;;;;;7.00;3.17;;;16.40;99.90;;;;;;6194419;23;20429;-85
2022/11/02 12:40:35;;;;;;;4.67;3.03;;;16.30;99.90;;;;;;6193727;23;20450;-85
2022/11/02 12:43:40;;;;;;;6.40;2.10;;;16.30;99.90;;;;;;6193580;23;20379;-85
2022/11/02 12:46:33;;;;;;;7.03;2.53;;;16.20;99.90;;;;;;6194285;23;20737;-85
2022/11/02 12:49:37;;;;;;;4.30;2.97;;;16.10;99.90;;;;;;6193947;23;20402;-86
2022/11/02 12:52:15;;;;;;;4.10;3.00;;;16.40;99.90;;;;;;6192675;23;20912;-86
2022/11/02 12:55:01;;;;;;;4.20;3.27;;;16.30;99.90;;;;;;6192179;23;20433;-87
2022/11/02 12:57:35;;;;;;;7.67;3.87;;;16.50;99.90;;;;;;6192828;23;20417;-86
2022/11/02 13:00:07;;;;;;;6.50;3.03;;;16.60;99.90;;;;;;6192123;23;20497;-86
2022/11/02 13:03:08;;;;;;;4.43;2.70;;;16.70;99.90;;;;;;6195490;23;20418;-85
2022/11/02 13:05:45;;;;;;;4.13;2.27;;;16.80;99.90;;;;;;6192038;23;20448;-88
2022/11/02 13:08:21;;;;;;;4.30;2.93;;;17.00;99.90;;;;;;6192873;23;20379;-87
2022/11/02 13:10:57;;;;;;;6.37;2.40;;;17.30;99.90;;;;;;6167868;23;20625;-88
2022/11/02 13:13:42;;;;;;;5.60;3.37;;;17.20;99.90;;;;;;6195370;23;20377;-89
2022/11/02 13:16:23;;;;;;;5.03;2.57;;;17.10;99.90;;;;;;6193872;23;20395;-85
2022/11/02 13:18:53;;;;;;;5.03;2.30;;;17.00;99.90;;;;;;6167766;23;20925;-86
2022/11/02 13:21:38;;;;;;;8.80;7.00;;;17.10;99.90;;;;;;6167735;23;20509;-87
2022/11/02 13:24:16;;;;;;;3.40;2.30;;;17.00;99.90;;;;;;6168753;23;20411;-86
2022/11/02 13:26:47;;;;;;;5.43;2.30;;;16.90;99.90;;;;;;6170324;23;20386;-87
2022/11/02 13:29:45;;;;;;;9.50;3.30;;;16.70;99.90;;;;;;6172641;23;20379;-86
2022/11/02 13:32:48;;;;;;;;;;;;;;;;;;;;;
2022/11/02 13:35:31;;;;;;;5.90;2.80;;;16.50;99.90;;;;;;6181148;23;20730;-89
2022/11/02 13:38:28;;;;;;;8.77;3.40;;;16.40;99.90;;;;;;6192939;23;20354;-88
2022/11/02 13:41:27;;;;;;;9.30;4.53;;;16.40;99.90;;;;;;6171171;23;20329;-87
2022/11/02 13:44:40;;;;;;;5.40;2.57;;;16.40;99.90;;;;;;6200622;23;20574;-86
2022/11/02 13:47:31;;;;;;;7.10;2.83;;;16.40;99.90;;;;;;6134722;23;20377;-88
2022/11/02 13:50:01;;;;;;;6.53;2.90;;;16.40;99.90;;;;;;6197275;23;20542;-85
2022/11/02 13:52:39;;;;;;;3.90;2.20;;;16.30;99.90;;;;;;6197542;23;20483;-87